Time;durP1;ratioP1;P1;durP2;ratioP2;P2;SDS_P1;SDS_P2;PMS_P1;PMS_P2;Temp;Humidity;BMP_temperature;BMP_pressure;BME280_temperature;BME280_humidity;BME280_pressure;Samples;Min_cycle;Max_cycle;Signal;HPM_P1;HPM_P2
2022/04/22 00:01:50;;;;;;;6.55;4.40;;;;;;;;;;5010342;28;20041;-65
2022/04/22 00:04:16;;;;;;;9.85;5.18;;;;;;;;;;5065646;28;20045;-64
2022/04/22 00:06:42;;;;;;;8.23;4.63;;;;;;;;;;5033317;28;20070;-64
2022/04/22 00:09:08;;;;;;;11.02;6.03;;;;;;;;;;5029954;28;20064;-64
2022/04/22 00:11:34;;;;;;;9.80;5.07;;;;;;;;;;5031668;28;20071;-64
2022/04/22 00:14:01;;;;;;;9.30;5.70;;;;;;;;;;5026646;28;20353;-64
2022/04/22 00:16:30;;;;;;;14.30;6.93;;;;;;;;;;5032371;28;20064;-62
2022/04/22 00:18:56;;;;;;;12.32;6.45;;;;;;;;;;5052715;28;20550;-64
2022/04/22 00:21:22;;;;;;;11.93;6.60;;;;;;;;;;5030657;28;20124;-63
2022/04/22 00:23:49;;;;;;;8.85;5.15;;;;;;;;;;5031148;28;20044;-64
2022/04/22 00:26:16;;;;;;;13.77;6.60;;;;;;;;;;5028095;28;20047;-63
2022/04/22 00:28:42;;;;;;;13.23;6.82;;;;;;;;;;5055769;28;20472;-65
2022/04/22 00:31:08;;;;;;;11.90;7.13;;;;;;;;;;5031596;28;20041;-63
2022/04/22 00:33:36;;;;;;;9.60;5.75;;;;;;;;;;5054064;28;20695;-64
2022/04/22 00:36:02;;;;;;;11.65;6.30;;;;;;;;;;5034215;28;20048;-64
2022/04/22 00:38:28;;;;;;;11.55;6.63;;;;;;;;;;5063466;28;20041;-64
2022/04/22 00:40:55;;;;;;;7.72;4.82;;;;;;;;;;5029486;28;20060;-64
2022/04/22 00:43:22;;;;;;;11.85;6.00;;;;;;;;;;5028629;28;20608;-63
2022/04/22 00:45:49;;;;;;;8.10;5.75;;;;;;;;;;5032341;28;20492;-64
2022/04/22 00:48:16;;;;;;;8.73;5.32;;;;;;;;;;5031714;28;20439;-63
2022/04/22 00:50:42;;;;;;;9.82;5.32;;;;;;;;;;5010548;28;20409;-64
2022/04/22 00:53:10;;;;;;;8.75;5.57;;;;;;;;;;5049095;28;20045;-63
2022/04/22 00:55:38;;;;;;;12.00;6.20;;;;;;;;;;5047154;28;20387;-63
2022/04/22 00:58:04;;;;;;;8.30;5.72;;;;;;;;;;5050051;28;20056;-62
2022/04/22 01:00:31;;;;;;;7.07;4.82;;;;;;;;;;5050918;28;20041;-63
2022/04/22 01:02:57;;;;;;;9.77;6.15;;;;;;;;;;5031778;28;20041;-63
2022/04/22 01:10:57;;;;;;;7.43;4.68;;;;;;;;;;5037320;28;20043;-63
2022/04/22 01:13:24;;;;;;;10.55;5.88;;;;;;;;;;5033657;28;20041;-63
2022/04/22 01:15:50;;;;;;;10.18;5.28;;;;;;;;;;5035084;28;20118;-63
2022/04/22 01:18:16;;;;;;;10.57;6.13;;;;;;;;;;5037047;28;20041;-62
2022/04/22 01:20:42;;;;;;;10.45;6.05;;;;;;;;;;5032383;28;20440;-64
2022/04/22 01:23:09;;;;;;;13.25;6.72;;;;;;;;;;5043891;28;20132;-63
2022/04/22 01:25:35;;;;;;;8.07;5.25;;;;;;;;;;5030019;28;20114;-62
2022/04/22 01:28:01;;;;;;;10.73;6.13;;;;;;;;;;5068831;28;20053;-62
2022/04/22 01:30:28;;;;;;;6.90;3.75;;;;;;;;;;5036326;28;20077;-63
2022/04/22 01:32:56;;;;;;;8.07;4.90;;;;;;;;;;5055127;28;20045;-63
2022/04/22 01:35:24;;;;;;;10.68;7.05;;;;;;;;;;5034790;28;20055;-62
2022/04/22 01:37:50;;;;;;;10.95;6.55;;;;;;;;;;5037499;28;20038;-64
2022/04/22 01:40:16;;;;;;;7.95;4.50;;;;;;;;;;5014944;28;20053;-62
2022/04/22 01:42:42;;;;;;;9.45;5.07;;;;;;;;;;5033417;28;20453;-62
2022/04/22 01:45:09;;;;;;;7.60;4.57;;;;;;;;;;5032252;28;20053;-62
2022/04/22 01:47:36;;;;;;;11.20;4.72;;;;;;;;;;5039570;28;20076;-63
2022/04/22 01:50:02;;;;;;;7.35;5.45;;;;;;;;;;5034499;28;20479;-65
2022/04/22 01:52:29;;;;;;;8.55;4.45;;;;;;;;;;5034787;28;20040;-63
2022/04/22 01:54:56;;;;;;;9.65;4.97;;;;;;;;;;5060026;28;20068;-63
2022/04/22 01:57:22;;;;;;;7.22;3.72;;;;;;;;;;5024597;28;20083;-62
2022/04/22 01:59:48;;;;;;;7.95;4.93;;;;;;;;;;5035406;28;20040;-62
2022/04/22 02:02:15;;;;;;;15.38;5.90;;;;;;;;;;5032131;28;20037;-64
2022/04/22 02:04:41;;;;;;;12.07;5.63;;;;;;;;;;5055102;28;20041;-61
2022/04/22 02:07:08;;;;;;;8.93;5.05;;;;;;;;;;5033101;28;20056;-63
2022/04/22 02:09:34;;;;;;;6.88;3.58;;;;;;;;;;5029969;28;20041;-63
2022/04/22 02:12:00;;;;;;;10.30;5.82;;;;;;;;;;5028856;28;20037;-62
2022/04/22 02:14:26;;;;;;;11.40;6.40;;;;;;;;;;5055509;28;20064;-62
2022/04/22 02:16:53;;;;;;;11.43;6.38;;;;;;;;;;5031079;28;20041;-63
2022/04/22 02:19:19;;;;;;;14.45;6.88;;;;;;;;;;5032453;28;20045;-63
2022/04/22 02:21:45;;;;;;;11.02;6.45;;;;;;;;;;5032021;28;20049;-62
2022/04/22 02:24:11;;;;;;;11.95;6.53;;;;;;;;;;5051636;28;20106;-63
2022/04/22 02:29:22;;;;;;;8.73;5.35;;;;;;;;;;5031046;28;20042;-61
2022/04/22 02:31:53;;;;;;;9.95;5.57;;;;;;;;;;5037646;28;20128;-62
2022/04/22 02:34:23;;;;;;;9.68;5.80;;;;;;;;;;5029524;28;20044;-62
2022/04/22 02:36:49;;;;;;;15.00;6.47;;;;;;;;;;5050510;28;20644;-63
2022/04/22 02:39:16;;;;;;;7.32;5.22;;;;;;;;;;5012202;28;20116;-63
2022/04/22 02:47:19;;;;;;;11.75;5.80;;;;;;;;;;5032992;28;20596;-63
2022/04/22 02:49:45;;;;;;;8.82;5.95;;;;;;;;;;5031300;28;20091;-62
2022/04/22 02:52:12;;;;;;;9.77;6.55;;;;;;;;;;5053756;28;20486;-63
2022/04/22 02:54:38;;;;;;;9.63;6.03;;;;;;;;;;5031899;28;20041;-63
2022/04/22 02:57:04;;;;;;;7.53;5.18;;;;;;;;;;5051934;28;20087;-64
2022/04/22 02:59:31;;;;;;;9.38;5.10;;;;;;;;;;5051448;28;20049;-62
2022/04/22 03:01:57;;;;;;;8.70;4.80;;;;;;;;;;5016319;28;20081;-63
2022/04/22 03:04:24;;;;;;;9.95;5.75;;;;;;;;;;5030944;28;20478;-63
2022/04/22 03:06:50;;;;;;;11.60;6.15;;;;;;;;;;5031943;28;20054;-63
2022/04/22 03:09:16;;;;;;;9.20;6.18;;;;;;;;;;5015191;28;20140;-63
2022/04/22 03:11:42;;;;;;;10.82;5.95;;;;;;;;;;5034841;28;20064;-61
2022/04/22 03:14:09;;;;;;;8.18;4.45;;;;;;;;;;5056507;28;20125;-63
2022/04/22 03:16:35;;;;;;;10.02;5.40;;;;;;;;;;5032528;28;20045;-64
2022/04/22 03:19:01;;;;;;;9.40;5.50;;;;;;;;;;5030470;28;20273;-63
2022/04/22 03:21:27;;;;;;;9.77;5.93;;;;;;;;;;5037461;28;20048;-63
2022/04/22 03:23:54;;;;;;;6.65;4.72;;;;;;;;;;5031882;28;20500;-63
2022/04/22 03:26:21;;;;;;;10.30;5.43;;;;;;;;;;5032230;28;20064;-63
2022/04/22 03:28:47;;;;;;;9.88;5.57;;;;;;;;;;5038730;28;20053;-62
2022/04/22 03:31:13;;;;;;;10.90;5.22;;;;;;;;;;5054685;28;20470;-62
2022/04/22 03:33:39;;;;;;;10.70;5.50;;;;;;;;;;5034263;28;20150;-62
2022/04/22 03:36:06;;;;;;;8.20;4.78;;;;;;;;;;5035401;28;20112;-62
2022/04/22 03:38:33;;;;;;;7.80;5.20;;;;;;;;;;5034224;28;20033;-63
2022/04/22 03:40:59;;;;;;;7.80;5.60;;;;;;;;;;5065786;28;20042;-63
2022/04/22 03:43:25;;;;;;;8.57;5.20;;;;;;;;;;5033581;28;20076;-62
2022/04/22 03:45:51;;;;;;;8.07;4.75;;;;;;;;;;5028516;28;20041;-62
2022/04/22 03:48:18;;;;;;;8.80;4.70;;;;;;;;;;5028240;28;20052;-63
2022/04/22 03:50:44;;;;;;;10.70;5.75;;;;;;;;;;5053424;28;20403;-62
2022/04/22 03:53:11;;;;;;;8.88;5.38;;;;;;;;;;5025474;28;20103;-63
2022/04/22 03:55:38;;;;;;;9.40;5.10;;;;;;;;;;5051291;28;20081;-62
2022/04/22 03:58:10;;;;;;;9.25;4.57;;;;;;;;;;5045858;28;20095;-64
2022/04/22 04:00:39;;;;;;;2.97;1.88;;;;;;;;;;5051286;28;20041;-62
2022/04/22 04:03:06;;;;;;;7.18;4.22;;;;;;;;;;5029883;28;20083;-62
2022/04/22 04:05:33;;;;;;;8.38;4.35;;;;;;;;;;5031432;28;20033;-62
2022/04/22 04:07:59;;;;;;;8.25;4.28;;;;;;;;;;5038766;28;20068;-62
2022/04/22 04:16:00;;;;;;;4.97;2.92;;;;;;;;;;5059420;28;20136;-63
2022/04/22 04:18:32;;;;;;;6.88;4.30;;;;;;;;;;5052854;28;20041;-63
2022/04/22 04:23:44;;;;;;;6.22;3.65;;;;;;;;;;5029775;28;20060;-63
2022/04/22 04:26:10;;;;;;;7.47;4.07;;;;;;;;;;5027475;28;20088;-63
2022/04/22 04:28:36;;;;;;;6.53;3.95;;;;;;;;;;5028280;28;20036;-62
2022/04/22 04:31:03;;;;;;;5.25;2.67;;;;;;;;;;5017882;28;20622;-63
2022/04/22 04:33:29;;;;;;;5.72;3.35;;;;;;;;;;5051653;28;20043;-64
2022/04/22 04:35:56;;;;;;;5.95;2.50;;;;;;;;;;5025904;28;20065;-63
2022/04/22 04:38:22;;;;;;;4.82;2.38;;;;;;;;;;5052257;28;20068;-63
2022/04/22 04:40:49;;;;;;;4.95;2.40;;;;;;;;;;5035060;28;20427;-63
2022/04/22 04:43:16;;;;;;;4.30;2.70;;;;;;;;;;5029514;28;20045;-63
2022/04/22 04:45:42;;;;;;;6.63;3.00;;;;;;;;;;5052599;28;20041;-62
2022/04/22 04:48:08;;;;;;;5.72;3.53;;;;;;;;;;5029687;28;20048;-63
2022/04/22 04:50:34;;;;;;;6.30;3.00;;;;;;;;;;5029570;28;20047;-63
2022/04/22 04:53:01;;;;;;;8.60;3.10;;;;;;;;;;5039923;28;20511;-63
2022/04/22 04:55:27;;;;;;;4.90;1.90;;;;;;;;;;5027717;28;20037;-63
2022/04/22 04:57:53;;;;;;;5.68;2.70;;;;;;;;;;5010034;28;20077;-62
2022/04/22 05:00:20;;;;;;;4.88;2.35;;;;;;;;;;5031712;28;20041;-62
2022/04/22 05:02:46;;;;;;;6.20;2.88;;;;;;;;;;5033135;28;20442;-63
2022/04/22 05:05:13;;;;;;;5.75;2.05;;;;;;;;;;5050232;28;20122;-62
2022/04/22 05:07:51;;;;;;;4.32;2.53;;;;;;;;;;5028638;28;20100;-63
2022/04/22 05:10:18;;;;;;;3.50;2.25;;;;;;;;;;5026210;28;20041;-63
2022/04/22 05:12:47;;;;;;;5.38;1.95;;;;;;;;;;5052601;28;20483;-61
2022/04/22 05:15:14;;;;;;;4.40;2.33;;;;;;;;;;5049686;28;20080;-63
2022/04/22 05:17:41;;;;;;;3.45;2.17;;;;;;;;;;5028171;28;20045;-62
2022/04/22 05:20:08;;;;;;;6.20;2.10;;;;;;;;;;5028943;28;20045;-62
2022/04/22 05:22:34;;;;;;;2.95;1.48;;;;;;;;;;5051740;28;20505;-63
2022/04/22 05:25:00;;;;;;;3.63;1.63;;;;;;;;;;5052588;28;20041;-64
2022/04/22 05:27:26;;;;;;;4.93;1.45;;;;;;;;;;5051237;28;20037;-63
2022/04/22 05:32:37;;;;;;;4.03;2.20;;;;;;;;;;5026833;28;20048;-61
2022/04/22 05:35:04;;;;;;;3.05;1.38;;;;;;;;;;5027533;28;20077;-62
2022/04/22 05:37:43;;;;;;;3.90;1.75;;;;;;;;;;5052717;28;20085;-63
2022/04/22 05:40:10;;;;;;;3.10;0.98;;;;;;;;;;5052904;28;20093;-62
2022/04/22 05:42:38;;;;;;;3.35;1.90;;;;;;;;;;5031952;28;20084;-61
2022/04/22 05:45:07;;;;;;;3.20;1.17;;;;;;;;;;5032913;28;20056;-63
2022/04/22 05:47:34;;;;;;;4.18;2.00;;;;;;;;;;5039912;28;20128;-63
2022/04/22 05:50:00;;;;;;;13.65;1.60;;;;;;;;;;5051574;28;20399;-62
2022/04/22 05:52:26;;;;;;;2.55;1.42;;;;;;;;;;5055008;28;20065;-62
2022/04/22 05:54:53;;;;;;;2.20;0.90;;;;;;;;;;5038173;28;20254;-63
2022/04/22 05:57:20;;;;;;;2.40;1.25;;;;;;;;;;5032558;28;20187;-63
2022/04/22 05:59:46;;;;;;;3.90;1.05;;;;;;;;;;5033583;28;20041;-63
2022/04/22 06:02:12;;;;;;;2.47;1.30;;;;;;;;;;5033090;28;20052;-63
2022/04/22 06:04:39;;;;;;;2.42;1.17;;;;;;;;;;5039008;28;20033;-62
2022/04/22 06:07:05;;;;;;;2.85;1.17;;;;;;;;;;5055368;28;20131;-63
2022/04/22 06:12:18;;;;;;;3.92;1.08;;;;;;;;;;5035392;28;20048;-62
2022/04/22 06:14:46;;;;;;;1.83;0.95;;;;;;;;;;5052801;28;20468;-61
2022/04/22 06:17:13;;;;;;;3.60;1.40;;;;;;;;;;5016486;28;21921;-63
2022/04/22 06:19:40;;;;;;;4.40;1.20;;;;;;;;;;5032091;28;20052;-62
2022/04/22 06:22:06;;;;;;;2.83;1.00;;;;;;;;;;5034106;28;20045;-62
2022/04/22 06:24:32;;;;;;;3.58;1.30;;;;;;;;;;5036900;28;20041;-63
2022/04/22 06:26:58;;;;;;;3.03;1.00;;;;;;;;;;5044095;28;20314;-63
2022/04/22 06:29:25;;;;;;;2.45;0.80;;;;;;;;;;5031555;28;20044;-63
2022/04/22 06:31:51;;;;;;;1.98;1.23;;;;;;;;;;5017143;28;20068;-62
2022/04/22 06:34:18;;;;;;;3.03;1.00;;;;;;;;;;5038012;28;20041;-64
2022/04/22 06:36:44;;;;;;;4.80;1.45;;;;;;;;;;5036269;28;20048;-63
2022/04/22 06:39:10;;;;;;;2.05;0.60;;;;;;;;;;5022602;28;20056;-63
2022/04/22 06:47:07;;;;;;;4.60;0.93;;;;;;;;;;5055947;28;20115;-63
2022/04/22 06:49:33;;;;;;;3.60;1.42;;;;;;;;;;5029099;28;20045;-63
2022/04/22 06:52:01;;;;;;;4.78;1.52;;;;;;;;;;5031469;28;20076;-61
2022/04/22 06:54:27;;;;;;;4.60;1.20;;;;;;;;;;5038219;28;20124;-63
2022/04/22 06:56:53;;;;;;;2.53;0.90;;;;;;;;;;5027647;28;20597;-62
2022/04/22 06:59:22;;;;;;;2.17;1.10;;;;;;;;;;5029365;28;20114;-63
2022/04/22 07:01:48;;;;;;;3.88;1.55;;;;;;;;;;5054192;28;20045;-63
2022/04/22 07:04:15;;;;;;;4.00;1.25;;;;;;;;;;5035194;28;20075;-63
2022/04/22 07:06:45;;;;;;;5.53;1.20;;;;;;;;;;5028315;28;20057;-62
2022/04/22 07:09:11;;;;;;;4.05;1.35;;;;;;;;;;5050816;28;20367;-63
2022/04/22 07:11:40;;;;;;;4.70;1.00;;;;;;;;;;5031424;28;20037;-64
2022/04/22 07:14:07;;;;;;;5.68;1.80;;;;;;;;;;5033317;28;20041;-64
2022/04/22 07:16:33;;;;;;;3.45;1.08;;;;;;;;;;5045559;28;20128;-63
2022/04/22 07:19:00;;;;;;;2.50;1.00;;;;;;;;;;5058063;28;20037;-63
2022/04/22 07:21:26;;;;;;;4.20;1.20;;;;;;;;;;4997147;28;20037;-64
2022/04/22 07:23:55;;;;;;;3.28;1.08;;;;;;;;;;5033512;28;20491;-63
2022/04/22 07:26:22;;;;;;;3.17;1.23;;;;;;;;;;5030307;28;20049;-62
2022/04/22 07:28:49;;;;;;;3.42;1.15;;;;;;;;;;5031039;28;20438;-63
2022/04/22 07:31:16;;;;;;;5.95;1.65;;;;;;;;;;5015212;28;20072;-64
2022/04/22 07:33:42;;;;;;;5.90;1.77;;;;;;;;;;5048785;28;20072;-61
2022/04/22 07:36:09;;;;;;;3.55;1.10;;;;;;;;;;5053431;28;20436;-61
2022/04/22 07:38:35;;;;;;;5.65;1.17;;;;;;;;;;5034421;28;20124;-61
2022/04/22 07:41:02;;;;;;;3.38;1.48;;;;;;;;;;5031688;28;20061;-61
2022/04/22 07:48:58;;;;;;;3.72;1.13;;;;;;;;;;5035073;28;20686;-61
2022/04/22 07:51:29;;;;;;;2.00;0.95;;;;;;;;;;5030939;28;20041;-61
2022/04/22 07:53:55;;;;;;;2.22;0.98;;;;;;;;;;5033670;28;20453;-61
2022/04/22 07:56:21;;;;;;;2.42;1.00;;;;;;;;;;5030910;28;20045;-61
2022/04/22 07:58:48;;;;;;;4.85;1.38;;;;;;;;;;5029483;28;20030;-63
2022/04/22 08:01:14;;;;;;;5.13;1.20;;;;;;;;;;5029824;28;20034;-62
2022/04/22 08:03:40;;;;;;;3.13;0.93;;;;;;;;;;5054436;28;20088;-62
2022/04/22 08:06:06;;;;;;;3.40;1.10;;;;;;;;;;5029717;28;20561;-61
2022/04/22 08:08:32;;;;;;;3.88;0.93;;;;;;;;;;5027749;28;20042;-62
2022/04/22 08:10:58;;;;;;;3.33;1.10;;;;;;;;;;5027563;28;20434;-63
2022/04/22 08:13:26;;;;;;;3.42;1.02;;;;;;;;;;5033707;28;20045;-62
2022/04/22 08:15:52;;;;;;;4.38;1.50;;;;;;;;;;5028727;28;20042;-63
2022/04/22 08:18:18;;;;;;;3.40;1.00;;;;;;;;;;5036426;28;20042;-62
2022/04/22 08:20:44;;;;;;;3.88;1.20;;;;;;;;;;5057219;28;21410;-65
2022/04/22 08:23:11;;;;;;;4.35;0.65;;;;;;;;;;5013675;28;20106;-63
2022/04/22 08:25:37;;;;;;;2.70;1.23;;;;;;;;;;5032520;28;20488;-63
2022/04/22 08:28:03;;;;;;;3.55;1.00;;;;;;;;;;5055427;28;20132;-63
2022/04/22 08:30:29;;;;;;;4.53;1.65;;;;;;;;;;5034086;28;20037;-63
2022/04/22 08:33:01;;;;;;;4.15;1.17;;;;;;;;;;5050877;28;20124;-63
2022/04/22 08:35:27;;;;;;;2.80;1.10;;;;;;;;;;5030344;28;20498;-62
2022/04/22 08:37:53;;;;;;;3.65;0.90;;;;;;;;;;5050353;28;20055;-63
2022/04/22 08:40:20;;;;;;;3.17;0.90;;;;;;;;;;5032696;28;20053;-64
2022/04/22 08:42:46;;;;;;;4.13;1.30;;;;;;;;;;5035543;28;20452;-63
2022/04/22 08:45:13;;;;;;;4.57;1.60;;;;;;;;;;5035862;28;20104;-63
2022/04/22 08:50:32;;;;;;;3.00;0.93;;;;;;;;;;5035650;28;20132;-61
2022/04/22 08:53:06;;;;;;;2.65;1.10;;;;;;;;;;5031285;28;20033;-61
2022/04/22 08:55:32;;;;;;;3.17;1.45;;;;;;;;;;5031704;28;20033;-61
2022/04/22 08:58:00;;;;;;;2.35;1.17;;;;;;;;;;5029394;28;20044;-61
2022/04/22 09:00:29;;;;;;;2.65;1.10;;;;;;;;;;5035775;28;20121;-61
2022/04/22 09:02:55;;;;;;;7.18;1.25;;;;;;;;;;5030969;28;20080;-62
2022/04/22 09:05:21;;;;;;;4.93;1.20;;;;;;;;;;5032191;28;20119;-61
2022/04/22 09:07:48;;;;;;;3.20;1.20;;;;;;;;;;5027833;28;20045;-61
2022/04/22 09:10:14;;;;;;;4.47;1.13;;;;;;;;;;5031936;28;20412;-63
2022/04/22 09:12:43;;;;;;;1.83;0.95;;;;;;;;;;5032629;28;20080;-61
2022/04/22 09:15:10;;;;;;;2.92;1.20;;;;;;;;;;5032013;28;20041;-62
2022/04/22 09:17:37;;;;;;;4.00;2.00;;;;;;;;;;5028116;28;20053;-64
2022/04/22 09:20:05;;;;;;;4.05;1.40;;;;;;;;;;5038002;28;20049;-63
2022/04/22 09:22:36;;;;;;;4.15;1.40;;;;;;;;;;5034378;28;20083;-61
2022/04/22 09:25:05;;;;;;;4.88;1.55;;;;;;;;;;5032570;28;20041;-62
2022/04/22 09:27:35;;;;;;;2.85;0.93;;;;;;;;;;5029380;28;20450;-62
2022/04/22 09:30:02;;;;;;;6.05;1.40;;;;;;;;;;5035599;28;20056;-62
2022/04/22 09:32:30;;;;;;;2.70;1.10;;;;;;;;;;5035941;28;20049;-64
2022/04/22 09:34:57;;;;;;;2.88;1.27;;;;;;;;;;5060286;28;20041;-63
2022/04/22 09:42:55;;;;;;;3.05;0.95;;;;;;;;;;5032737;28;20049;-64
2022/04/22 09:45:21;;;;;;;5.05;1.45;;;;;;;;;;5061633;28;20454;-63
2022/04/22 09:47:57;;;;;;;7.53;1.80;;;;;;;;;;5039160;28;20045;-63
2022/04/22 09:50:45;;;;;;;4.03;1.25;;;;;;;;;;5034782;28;20526;-63
2022/04/22 09:53:12;;;;;;;2.58;1.02;;;;;;;;;;5035121;28;20053;-64
2022/04/22 09:55:48;;;;;;;2.30;1.10;;;;;;;;;;5031442;28;20041;-64
2022/04/22 09:58:21;;;;;;;2.08;0.90;;;;;;;;;;5032265;28;20091;-63
2022/04/22 10:00:49;;;;;;;3.65;1.70;;;;;;;;;;5034459;28;20073;-64
2022/04/22 10:03:16;;;;;;;3.58;1.40;;;;;;;;;;5056992;28;20055;-64
2022/04/22 10:05:43;;;;;;;2.90;0.82;;;;;;;;;;5051164;28;20041;-64
2022/04/22 10:08:10;;;;;;;2.35;1.00;;;;;;;;;;5054319;28;20120;-62
2022/04/22 10:10:39;;;;;;;2.63;0.98;;;;;;;;;;5039067;28;20494;-62
2022/04/22 10:13:06;;;;;;;3.55;1.27;;;;;;;;;;5034078;28;20550;-64
2022/04/22 10:15:37;;;;;;;3.72;1.10;;;;;;;;;;5016704;28;20041;-63
2022/04/22 10:18:04;;;;;;;3.13;1.15;;;;;;;;;;5034748;28;20049;-62
2022/04/22 10:20:32;;;;;;;3.40;0.98;;;;;;;;;;5025123;28;20093;-61
2022/04/22 10:22:58;;;;;;;2.75;1.50;;;;;;;;;;5028731;28;20198;-62
2022/04/22 10:25:25;;;;;;;4.10;1.55;;;;;;;;;;5040605;28;20049;-61
2022/04/22 10:27:53;;;;;;;5.50;1.50;;;;;;;;;;5029400;28;20049;-61
2022/04/22 10:30:20;;;;;;;2.22;1.27;;;;;;;;;;5034415;28;20076;-63
2022/04/22 10:32:47;;;;;;;3.63;1.35;;;;;;;;;;5031678;28;20040;-62
2022/04/22 10:35:15;;;;;;;3.85;1.92;;;;;;;;;;5035483;28;20053;-61
2022/04/22 10:37:42;;;;;;;1.70;1.25;;;;;;;;;;5031304;28;20102;-62
2022/04/22 10:40:18;;;;;;;3.22;1.60;;;;;;;;;;5037992;28;20057;-62
2022/04/22 10:42:44;;;;;;;3.60;1.30;;;;;;;;;;5035759;28;20045;-61
2022/04/22 10:47:56;;;;;;;4.10;1.73;;;;;;;;;;5031676;28;20061;-60
2022/04/22 10:50:25;;;;;;;5.57;2.00;;;;;;;;;;5035283;28;20261;-61
2022/04/22 10:53:08;;;;;;;3.15;1.70;;;;;;;;;;5031128;28;20029;-62
2022/04/22 10:55:35;;;;;;;2.07;1.30;;;;;;;;;;5034975;28;20082;-62
2022/04/22 10:58:13;;;;;;;3.95;1.70;;;;;;;;;;5038864;28;20117;-61
2022/04/22 11:00:43;;;;;;;7.03;2.33;;;;;;;;;;5049348;28;20537;-62
2022/04/22 11:03:15;;;;;;;3.28;1.60;;;;;;;;;;5033834;28;20045;-61
2022/04/22 11:05:52;;;;;;;2.28;1.42;;;;;;;;;;5036867;28;20036;-62
2022/04/22 11:08:26;;;;;;;3.92;1.77;;;;;;;;;;5063495;28;20046;-62
2022/04/22 11:10:52;;;;;;;3.55;1.60;;;;;;;;;;5047903;28;20120;-61
2022/04/22 11:13:39;;;;;;;2.80;1.77;;;;;;;;;;5031057;28;20037;-61
2022/04/22 11:16:22;;;;;;;2.53;1.42;;;;;;;;;;5029925;28;20510;-62
2022/04/22 11:19:08;;;;;;;3.38;1.90;;;;;;;;;;5030621;28;20152;-64
2022/04/22 11:21:36;;;;;;;5.47;2.70;;;;;;;;;;5029275;28;20037;-61
2022/04/22 11:24:13;;;;;;;3.70;1.80;;;;;;;;;;5039172;28;20040;-62
2022/04/22 11:26:40;;;;;;;3.80;1.75;;;;;;;;;;5023647;28;20055;-62
2022/04/22 11:29:10;;;;;;;3.50;2.05;;;;;;;;;;5039618;28;20045;-62
2022/04/22 11:31:36;;;;;;;3.63;2.30;;;;;;;;;;5013501;28;20044;-63
2022/04/22 11:34:16;;;;;;;3.05;1.90;;;;;;;;;;5030646;28;20391;-62
2022/04/22 11:36:42;;;;;;;3.33;2.03;;;;;;;;;;5033410;28;20444;-62
2022/04/22 11:39:12;;;;;;;3.15;1.90;;;;;;;;;;5035989;28;20060;-62
2022/04/22 11:41:50;;;;;;;5.47;2.58;;;;;;;;;;5027164;28;20407;-62
2022/04/22 11:44:21;;;;;;;3.40;2.45;;;;;;;;;;5053664;28;20040;-63
2022/04/22 11:46:47;;;;;;;3.08;1.60;;;;;;;;;;5031671;28;20121;-63
2022/04/22 11:49:15;;;;;;;2.92;1.95;;;;;;;;;;5047675;28;20174;-62
2022/04/22 11:51:41;;;;;;;6.88;2.78;;;;;;;;;;5028416;28;20398;-62
2022/04/22 11:54:07;;;;;;;5.43;2.38;;;;;;;;;;5010991;28;20415;-63
2022/04/22 11:56:36;;;;;;;4.97;2.08;;;;;;;;;;5033578;28;20479;-62
2022/04/22 11:59:03;;;;;;;2.53;1.75;;;;;;;;;;5029836;28;20622;-64
2022/04/22 12:10:01;;;;;;;4.72;2.38;;;;;;;;;;5029983;28;20041;-63
2022/04/22 12:12:31;;;;;;;4.53;1.92;;;;;;;;;;5028188;28;20052;-63
2022/04/22 12:15:01;;;;;;;4.63;2.33;;;;;;;;;;5028689;28;20356;-62
2022/04/22 12:17:27;;;;;;;4.13;2.67;;;;;;;;;;5028142;28;20050;-62
2022/04/22 12:19:53;;;;;;;4.45;2.25;;;;;;;;;;5029833;28;20504;-63
2022/04/22 12:22:20;;;;;;;3.25;2.58;;;;;;;;;;5045000;28;20424;-63
2022/04/22 12:25:05;;;;;;;4.63;2.20;;;;;;;;;;5028122;28;20561;-62
2022/04/22 12:27:31;;;;;;;4.57;2.20;;;;;;;;;;5028784;28;20049;-63
2022/04/22 12:30:01;;;;;;;4.53;2.78;;;;;;;;;;5028017;28;20046;-64
2022/04/22 12:32:27;;;;;;;6.20;2.80;;;;;;;;;;5029816;28;20044;-63
2022/04/22 12:35:09;;;;;;;10.13;3.10;;;;;;;;;;5044659;28;20743;-63
2022/04/22 12:37:35;;;;;;;4.32;2.80;;;;;;;;;;5029123;28;20055;-63
2022/04/22 12:40:08;;;;;;;4.40;2.30;;;;;;;;;;5033284;28;20136;-63
2022/04/22 12:42:35;;;;;;;3.47;2.15;;;;;;;;;;5018354;28;20495;-64
2022/04/22 12:53:43;;;;;;;4.60;2.53;;;;;;;;;;5030105;28;20068;-63
2022/04/22 12:56:09;;;;;;;5.00;2.22;;;;;;;;;;5045814;28;20041;-64
2022/04/22 12:58:51;;;;;;;6.68;3.00;;;;;;;;;;5019081;28;20037;-63
2022/04/22 13:01:19;;;;;;;4.22;3.00;;;;;;;;;;5026726;28;20126;-63
2022/04/22 13:03:45;;;;;;;6.72;2.90;;;;;;;;;;5028637;28;20045;-63
2022/04/22 13:06:12;;;;;;;8.25;2.70;;;;;;;;;;5026118;28;20893;-63
2022/04/22 13:08:38;;;;;;;5.93;2.97;;;;;;;;;;5038528;28;20064;-64
2022/04/22 13:11:08;;;;;;;6.20;2.50;;;;;;;;;;5031243;28;20033;-63
2022/04/22 13:13:34;;;;;;;6.38;2.45;;;;;;;;;;5033502;28;20045;-64
2022/04/22 13:16:00;;;;;;;8.55;2.53;;;;;;;;;;5016139;28;20037;-64
2022/04/22 13:18:26;;;;;;;5.00;2.55;;;;;;;;;;5028788;28;20619;-65
2022/04/22 13:20:54;;;;;;;5.30;2.65;;;;;;;;;;5026163;28;20046;-63
2022/04/22 13:23:20;;;;;;;3.55;2.25;;;;;;;;;;5013658;28;20492;-63
2022/04/22 13:25:46;;;;;;;5.80;2.38;;;;;;;;;;5049212;28;20105;-63
2022/04/22 13:28:12;;;;;;;7.10;2.72;;;;;;;;;;4992377;28;20081;-64
2022/04/22 13:30:38;;;;;;;5.03;2.53;;;;;;;;;;5047813;28;20034;-64
2022/04/22 13:33:04;;;;;;;3.72;2.28;;;;;;;;;;5010103;28;20033;-64
2022/04/22 13:35:30;;;;;;;4.82;2.40;;;;;;;;;;5062791;28;20050;-65
2022/04/22 13:37:57;;;;;;;6.97;2.67;;;;;;;;;;5012019;28;20102;-63
2022/04/22 13:40:23;;;;;;;5.55;2.67;;;;;;;;;;5034603;28;20049;-64
2022/04/22 13:42:49;;;;;;;4.35;2.15;;;;;;;;;;5010582;28;20045;-63
2022/04/22 13:53:29;;;;;;;6.55;2.90;;;;;;;;;;5054782;28;20505;-64
2022/04/22 13:55:55;;;;;;;4.25;2.90;;;;;;;;;;4999752;28;20049;-62
2022/04/22 13:58:21;;;;;;;4.38;2.63;;;;;;;;;;5032396;28;20563;-64
2022/04/22 14:00:47;;;;;;;5.82;3.00;;;;;;;;;;5072307;28;20049;-63
2022/04/22 14:03:14;;;;;;;5.68;2.70;;;;;;;;;;5029408;28;20117;-63
2022/04/22 14:05:40;;;;;;;5.95;2.60;;;;;;;;;;5033806;28;20037;-63
2022/04/22 14:08:06;;;;;;;5.30;2.65;;;;;;;;;;5035605;28;20604;-63
2022/04/22 14:10:32;;;;;;;5.60;2.90;;;;;;;;;;5033031;28;20493;-62
2022/04/22 14:12:58;;;;;;;7.22;2.85;;;;;;;;;;5052222;28;20081;-63
2022/04/22 14:15:25;;;;;;;3.55;2.10;;;;;;;;;;5036397;28;20139;-64
2022/04/22 14:17:52;;;;;;;4.38;2.50;;;;;;;;;;5030331;28;20419;-64
2022/04/22 14:20:18;;;;;;;7.00;3.30;;;;;;;;;;5035250;28;20045;-62
2022/04/22 14:22:44;;;;;;;5.32;3.08;;;;;;;;;;5033256;28;20061;-63
2022/04/22 14:25:10;;;;;;;6.03;3.10;;;;;;;;;;5061405;28;20106;-64
2022/04/22 14:27:36;;;;;;;6.28;2.75;;;;;;;;;;5035210;28;20048;-64
2022/04/22 14:30:03;;;;;;;7.70;2.90;;;;;;;;;;5051390;28;20069;-65
2022/04/22 14:32:29;;;;;;;4.82;2.47;;;;;;;;;;5030871;28;20392;-64
2022/04/22 14:34:55;;;;;;;4.03;2.58;;;;;;;;;;5028789;28;20038;-64
2022/04/22 14:37:21;;;;;;;4.40;2.50;;;;;;;;;;5030884;28;20041;-64
2022/04/22 14:39:47;;;;;;;7.13;2.80;;;;;;;;;;5031421;28;20057;-64
2022/04/22 14:42:14;;;;;;;4.70;2.60;;;;;;;;;;5031841;28;20053;-63
2022/04/22 14:44:40;;;;;;;4.60;2.47;;;;;;;;;;5051418;28;20046;-63
2022/04/22 14:47:10;;;;;;;4.68;2.50;;;;;;;;;;5012864;28;20135;-64
2022/04/22 14:49:36;;;;;;;3.75;2.78;;;;;;;;;;5029822;28;20053;-63
2022/04/22 14:52:02;;;;;;;5.78;3.50;;;;;;;;;;5055781;28;20041;-63
2022/04/22 14:54:28;;;;;;;4.90;2.90;;;;;;;;;;5031467;28;20045;-64
2022/04/22 14:56:55;;;;;;;6.15;3.00;;;;;;;;;;5033582;28;20518;-64
2022/04/22 14:59:21;;;;;;;6.47;2.75;;;;;;;;;;5023707;28;20136;-64
2022/04/22 15:01:47;;;;;;;5.07;2.08;;;;;;;;;;5042074;28;20049;-64
2022/04/22 15:04:13;;;;;;;4.78;1.60;;;;;;;;;;5032732;28;20434;-63
2022/04/22 15:06:40;;;;;;;6.40;2.75;;;;;;;;;;5036015;28;20044;-64
2022/04/22 15:09:06;;;;;;;3.97;2.40;;;;;;;;;;4996704;28;20045;-64
2022/04/22 15:11:32;;;;;;;5.60;3.00;;;;;;;;;;5037133;28;20160;-64
2022/04/22 15:14:02;;;;;;;6.18;3.22;;;;;;;;;;5029390;28;20064;-66
2022/04/22 15:16:29;;;;;;;5.72;3.10;;;;;;;;;;5051382;28;20045;-64
2022/04/22 15:24:25;;;;;;;6.38;2.53;;;;;;;;;;5028983;28;20049;-65
2022/04/22 15:26:54;;;;;;;6.22;3.42;;;;;;;;;;5027370;28;20120;-64
2022/04/22 15:29:20;;;;;;;4.75;3.15;;;;;;;;;;5010752;28;20045;-64
2022/04/22 15:31:46;;;;;;;4.82;3.50;;;;;;;;;;5030631;28;20033;-64
2022/04/22 15:34:13;;;;;;;7.25;3.75;;;;;;;;;;5027858;28;20052;-64
2022/04/22 15:36:40;;;;;;;5.13;3.42;;;;;;;;;;5042951;28;20048;-64
2022/04/22 15:39:06;;;;;;;5.03;3.15;;;;;;;;;;5057854;28;20152;-64
2022/04/22 15:41:34;;;;;;;7.13;3.60;;;;;;;;;;5036842;28;20508;-63
2022/04/22 15:44:01;;;;;;;5.60;2.80;;;;;;;;;;5055085;28;20499;-64
2022/04/22 15:46:27;;;;;;;6.53;3.67;;;;;;;;;;5063498;28;20052;-63
2022/04/22 15:48:54;;;;;;;7.53;3.88;;;;;;;;;;5058461;28;20091;-64
2022/04/22 15:51:23;;;;;;;7.55;3.88;;;;;;;;;;5031896;28;20056;-62
2022/04/22 15:53:50;;;;;;;9.10;4.13;;;;;;;;;;5036615;28;20048;-64
2022/04/22 15:56:16;;;;;;;10.18;4.75;;;;;;;;;;5036604;28;20025;-62
2022/04/22 15:58:43;;;;;;;8.50;4.80;;;;;;;;;;5038724;28;20376;-64
2022/04/22 16:01:18;;;;;;;7.20;4.32;;;;;;;;;;5054184;28;20445;-63
2022/04/22 16:03:51;;;;;;;6.72;3.95;;;;;;;;;;5013779;28;20041;-65